createdAt,value
2022-09-07T00:01:26.893Z,40.63
2022-09-07T00:03:59.649Z,40.68
2022-09-07T00:06:31.190Z,40.78
2022-09-07T00:09:02.506Z,40.85
2022-09-07T00:11:33.612Z,40.95
2022-09-07T00:14:05.693Z,41.10
2022-09-07T00:16:36.794Z,41.18
2022-09-07T00:19:08.056Z,41.17
2022-09-07T00:21:39.355Z,41.15
2022-09-07T00:24:10.844Z,41.37
2022-09-07T00:26:41.813Z,41.25
2022-09-07T00:29:12.973Z,41.53
2022-09-07T00:31:44.016Z,41.60
2022-09-07T00:34:15.095Z,41.43
2022-09-07T00:36:46.089Z,41.65
2022-09-07T00:39:17.108Z,41.58
2022-09-07T00:41:48.026Z,41.75
2022-09-07T00:44:49.531Z,41.84
2022-09-07T00:47:24.518Z,41.82
2022-09-07T00:50:01.209Z,41.96
2022-09-07T00:52:34.797Z,42.08
2022-09-07T00:55:11.540Z,42.26
2022-09-07T00:57:46.973Z,42.30
2022-09-07T01:00:18.155Z,42.28
2022-09-07T01:02:52.289Z,42.45
2022-09-07T01:05:27.649Z,42.41
2022-09-07T01:07:59.686Z,42.45
2022-09-07T01:10:32.852Z,42.68
2022-09-07T01:13:03.997Z,42.44
2022-09-07T01:15:48.910Z,42.38
2022-09-07T01:18:32.888Z,42.64
2022-09-07T01:21:28.367Z,42.74
2022-09-07T01:24:44.269Z,42.82
2022-09-07T01:27:58.729Z,42.77
2022-09-07T01:30:33.006Z,42.87
2022-09-07T01:33:24.187Z,43.08
2022-09-07T01:36:04.499Z,43.12
2022-09-07T01:38:42.556Z,42.95
2022-09-07T01:41:19.438Z,43.01
2022-09-07T01:43:55.735Z,43.19
2022-09-07T01:46:31.306Z,43.11
2022-09-07T01:49:09.469Z,43.27
2022-09-07T01:51:46.516Z,43.23
2022-09-07T01:54:23.652Z,43.44
2022-09-07T01:56:58.889Z,43.33
2022-09-07T01:59:31.131Z,43.43
2022-09-07T02:02:07.004Z,43.55
2022-09-07T02:04:44.656Z,43.74
2022-09-07T02:07:21.891Z,43.59
2022-09-07T02:09:59.128Z,43.63
2022-09-07T02:12:37.229Z,43.80
2022-09-07T02:15:15.781Z,43.78
2022-09-07T02:17:51.483Z,43.91
2022-09-07T02:20:27.997Z,43.85
2022-09-07T02:23:01.823Z,43.93
2022-09-07T02:25:38.510Z,43.95
2022-09-07T02:28:13.645Z,44.25
2022-09-07T02:30:45.361Z,44.24
2022-09-07T02:33:16.651Z,44.22
2022-09-07T02:35:48.230Z,44.41
2022-09-07T02:38:19.542Z,44.58
2022-09-07T02:40:55.297Z,44.67
2022-09-07T02:43:28.915Z,44.72
2022-09-07T02:46:12.576Z,44.55
2022-09-07T02:48:51.516Z,44.81
2022-09-07T02:51:30.460Z,44.84
2022-09-07T02:54:20.866Z,44.76
2022-09-07T02:57:03.410Z,44.94
2022-09-07T02:59:49.513Z,44.94
2022-09-07T03:02:27.839Z,45.07
2022-09-07T03:05:05.015Z,45.15
2022-09-07T03:07:44.126Z,45.47
2022-09-07T03:10:16.152Z,45.41
2022-09-07T03:12:49.078Z,45.29
2022-09-07T03:15:21.960Z,45.40
2022-09-07T03:17:53.055Z,45.50
2022-09-07T03:20:25.303Z,45.67
2022-09-07T03:22:56.434Z,45.77
2022-09-07T03:25:27.788Z,45.83
2022-09-07T03:27:58.862Z,45.87
2022-09-07T03:30:30.409Z,45.84
2022-09-07T03:33:01.751Z,46.09
2022-09-07T03:35:32.757Z,46.12
2022-09-07T03:38:03.844Z,46.19
2022-09-07T03:40:34.802Z,46.12
2022-09-07T03:43:06.033Z,46.39
2022-09-07T03:45:37.062Z,46.46
2022-09-07T03:48:08.778Z,46.45
2022-09-07T03:50:40.123Z,46.28
2022-09-07T03:53:15.730Z,46.51
2022-09-07T03:55:56.395Z,46.36
2022-09-07T03:58:27.313Z,46.52
2022-09-07T04:00:59.312Z,46.44
2022-09-07T04:03:30.350Z,46.44
2022-09-07T04:06:03.577Z,46.46
2022-09-07T04:08:36.759Z,46.68
2022-09-07T04:11:09.962Z,46.55
2022-09-07T04:13:41.645Z,46.60
2022-09-07T04:16:18.246Z,46.84
2022-09-07T04:18:50.738Z,46.74
2022-09-07T04:21:22.290Z,46.78
2022-09-07T04:23:53.990Z,46.58
2022-09-07T04:26:26.736Z,46.82
2022-09-07T04:28:58.352Z,46.97
2022-09-07T04:31:30.106Z,46.84
2022-09-07T04:34:01.053Z,46.96
2022-09-07T04:36:33.686Z,47.45
2022-09-07T04:39:06.510Z,46.91
2022-09-07T04:41:38.182Z,46.75
2022-09-07T04:44:11.722Z,46.08
2022-09-07T04:46:46.279Z,45.56
2022-09-07T04:49:21.735Z,44.82
2022-09-07T04:51:52.780Z,44.17
2022-09-07T04:54:26.499Z,43.18
2022-09-07T04:57:01.888Z,42.46
2022-09-07T04:59:36.010Z,41.84
2022-09-07T05:02:07.467Z,41.44
2022-09-07T05:04:39.141Z,40.76
2022-09-07T05:07:10.173Z,39.99
2022-09-07T05:09:43.921Z,39.49
2022-09-07T05:12:16.456Z,38.97
2022-09-07T05:14:47.440Z,38.57
2022-09-07T05:17:19.356Z,38.07
2022-09-07T05:19:50.662Z,37.77
2022-09-07T05:22:22.557Z,37.35
2022-09-07T05:24:53.704Z,37.11
2022-09-07T05:27:24.609Z,36.02
2022-09-07T05:30:04.307Z,35.08
2022-09-07T05:32:37.959Z,34.71
2022-09-07T05:35:10.120Z,33.55
2022-09-07T05:37:41.662Z,32.55
2022-09-07T05:40:15.607Z,31.53
2022-09-07T05:42:46.717Z,30.75
2022-09-07T05:45:20.177Z,29.73
2022-09-07T05:47:54.425Z,28.94
2022-09-07T05:50:25.389Z,28.38
2022-09-07T05:52:56.624Z,27.84
2022-09-07T05:55:30.420Z,27.25
2022-09-07T05:58:04.899Z,26.63
2022-09-07T06:00:36.329Z,26.22
2022-09-07T06:03:07.816Z,26.25
2022-09-07T06:05:39.023Z,25.77
2022-09-07T06:08:11.324Z,25.24
2022-09-07T06:10:44.530Z,25.01
2022-09-07T06:13:16.603Z,25.09
2022-09-07T06:15:47.752Z,24.87
2022-09-07T06:18:18.957Z,24.88
2022-09-07T06:20:56.226Z,24.66
2022-09-07T06:23:27.308Z,24.05
2022-09-07T06:26:00.671Z,23.65
2022-09-07T06:28:32.896Z,23.07
2022-09-07T06:31:06.228Z,22.72
2022-09-07T06:33:38.230Z,22.72
2022-09-07T06:36:13.217Z,22.26
2022-09-07T06:38:44.639Z,22.08
2022-09-07T06:44:12.605Z,20.58
2022-09-07T06:49:34.806Z,19.53
2022-09-07T06:52:06.332Z,19.59
2022-09-07T06:57:29.834Z,19.61
2022-09-07T07:00:04.742Z,19.43
2022-09-07T07:02:35.964Z,19.58
2022-09-07T07:05:10.626Z,19.02
2022-09-07T07:07:39.936Z,18.93
2022-09-07T07:10:11.817Z,19.10
2022-09-07T07:15:15.312Z,19.07
2022-09-07T07:17:53.163Z,18.95
2022-09-07T07:20:27.198Z,18.85
2022-09-07T07:22:58.275Z,18.88
2022-09-07T07:25:37.706Z,18.57
2022-09-07T07:31:07.208Z,18.70
2022-09-07T07:33:43.712Z,18.52
2022-09-07T07:36:17.546Z,18.43
2022-09-07T07:39:05.622Z,18.51
2022-09-07T07:44:23.440Z,18.79
2022-09-07T07:46:54.377Z,19.13
2022-09-07T07:49:26.121Z,19.05
2022-09-07T07:54:49.788Z,18.26
2022-09-07T07:57:21.212Z,17.74
2022-09-07T07:59:52.147Z,17.57
2022-09-07T08:02:26.568Z,17.34
2022-09-07T08:04:57.510Z,17.69
2022-09-07T08:07:28.541Z,17.89
2022-09-07T08:10:00.540Z,18.14
2022-09-07T08:12:31.673Z,18.24
2022-09-07T08:15:04.695Z,17.97
2022-09-07T08:17:36.652Z,18.48
2022-09-07T08:20:08.837Z,18.86
2022-09-07T08:22:40.111Z,19.07
2022-09-07T08:25:12.624Z,18.98
2022-09-07T08:27:43.999Z,19.39
2022-09-07T08:30:15.389Z,20.04
2022-09-07T08:32:46.235Z,20.02
2022-09-07T08:35:19.985Z,20.50
2022-09-07T08:37:50.940Z,21.01
2022-09-07T08:40:24.050Z,21.59
2022-09-07T08:43:04.915Z,21.24
2022-09-07T08:45:39.560Z,21.12
2022-09-07T08:48:15.712Z,21.20
2022-09-07T08:50:56.479Z,21.45
2022-09-07T08:53:28.320Z,21.58
2022-09-07T08:56:05.073Z,21.57
2022-09-07T08:58:49.253Z,21.42
2022-09-07T09:01:31.922Z,21.18
2022-09-07T09:04:21.461Z,21.10
2022-09-07T09:07:10.649Z,21.60
2022-09-07T09:10:07.298Z,21.93
2022-09-07T09:12:55.390Z,22.06
2022-09-07T09:15:35.124Z,21.80
2022-09-07T09:18:18.538Z,21.67
2022-09-07T09:20:54.738Z,21.82
2022-09-07T09:23:28.832Z,21.80
2022-09-07T09:26:03.334Z,21.82
2022-09-07T09:28:34.778Z,22.07
2022-09-07T09:31:07.099Z,22.20
2022-09-07T09:33:38.325Z,22.29
2022-09-07T09:36:26.981Z,22.43
2022-09-07T09:38:58.393Z,22.54
2022-09-07T09:41:38.402Z,22.66
2022-09-07T09:44:16.149Z,22.98
2022-09-07T09:49:54.237Z,23.06
2022-09-07T09:52:30.540Z,23.30
2022-09-07T09:55:23.531Z,23.48
2022-09-07T10:06:24.940Z,22.64
2022-09-07T10:08:59.215Z,22.74
2022-09-07T10:12:07.141Z,22.78
2022-09-07T10:14:44.791Z,22.86
2022-09-07T10:17:22.372Z,22.87
2022-09-07T10:19:54.265Z,23.18
2022-09-07T10:22:37.416Z,23.22
2022-09-07T10:25:30.903Z,23.19
2022-09-07T10:28:19.681Z,23.46
2022-09-07T10:31:14.779Z,23.48
2022-09-07T10:36:50.147Z,23.33
2022-09-07T10:39:26.265Z,23.32
2022-09-07T10:42:04.254Z,23.50
2022-09-07T10:44:59.202Z,23.58
2022-09-07T10:47:39.347Z,23.57
2022-09-07T10:50:22.540Z,23.23
2022-09-07T10:53:13.384Z,23.31
2022-09-07T10:56:01.271Z,23.64
2022-09-07T11:01:45.699Z,23.79
2022-09-07T11:04:41.576Z,24.30
2022-09-07T11:07:28.863Z,23.77
2022-09-07T11:10:09.320Z,23.46
2022-09-07T11:12:43.496Z,23.54
2022-09-07T11:15:23.819Z,23.68
2022-09-07T11:18:03.034Z,23.73
2022-09-07T11:20:41.548Z,23.67
2022-09-07T11:23:19.824Z,23.47
2022-09-07T11:26:00.275Z,23.41
2022-09-07T11:28:44.645Z,23.45
2022-09-07T11:31:24.498Z,23.35
2022-09-07T11:37:02.152Z,23.42
2022-09-07T11:39:40.671Z,23.70
2022-09-07T11:45:18.271Z,23.70
2022-09-07T11:47:55.484Z,23.75
2022-09-07T11:50:27.769Z,23.54
2022-09-07T11:53:04.913Z,23.57
2022-09-07T11:55:40.213Z,23.98
2022-09-07T11:58:36.392Z,23.94
2022-09-07T12:01:19.070Z,24.09
2022-09-07T12:04:16.866Z,23.76
2022-09-07T12:07:27.287Z,23.80
2022-09-07T12:10:14.378Z,24.18
2022-09-07T12:13:09.061Z,24.42
2022-09-07T12:15:52.736Z,24.38
2022-09-07T12:18:45.357Z,24.41
2022-09-07T12:21:36.067Z,24.26
2022-09-07T12:24:34.561Z,24.08
2022-09-07T12:27:06.914Z,23.97
2022-09-07T12:29:38.593Z,23.99
2022-09-07T12:35:04.236Z,24.11
2022-09-07T12:37:45.681Z,24.07
2022-09-07T12:40:49.041Z,24.28
2022-09-07T12:44:02.011Z,24.24
2022-09-07T12:46:48.459Z,24.14
2022-09-07T12:49:41.106Z,24.18
2022-09-07T12:52:34.313Z,24.15
2022-09-07T12:55:27.858Z,24.00
2022-09-07T12:58:13.460Z,24.08
2022-09-07T13:00:58.157Z,23.98
2022-09-07T13:04:03.704Z,24.04
2022-09-07T13:07:05.313Z,24.34
2022-09-07T13:09:42.166Z,24.13
2022-09-07T13:12:57.115Z,24.18
2022-09-07T13:15:48.613Z,24.35
2022-09-07T13:18:46.445Z,24.40
2022-09-07T13:21:39.685Z,24.43
2022-09-07T13:24:55.300Z,24.35
2022-09-07T13:27:58.973Z,24.36
2022-09-07T13:30:49.442Z,24.71
2022-09-07T13:33:46.194Z,24.66
2022-09-07T13:36:28.771Z,24.71
2022-09-07T13:39:00.918Z,24.58
2022-09-07T13:41:38.241Z,24.56
2022-09-07T13:44:25.804Z,24.48
2022-09-07T13:47:23.871Z,24.38
2022-09-07T13:50:11.605Z,24.25
2022-09-07T13:53:07.224Z,24.09
2022-09-07T13:55:52.765Z,24.06
2022-09-07T13:58:29.730Z,23.95
2022-09-07T14:01:03.509Z,24.17
2022-09-07T14:03:45.912Z,24.31
2022-09-07T14:06:34.463Z,24.30
2022-09-07T14:09:14.159Z,24.30
2022-09-07T14:11:47.992Z,24.38
2022-09-07T14:14:22.260Z,24.26
2022-09-07T14:16:58.873Z,24.27
2022-09-07T14:19:40.052Z,24.34
2022-09-07T14:22:17.242Z,24.42
2022-09-07T14:24:52.754Z,24.31
2022-09-07T14:27:25.941Z,24.29
2022-09-07T14:30:15.369Z,24.27
2022-09-07T14:32:53.729Z,24.37
2022-09-07T14:35:28.591Z,24.43
2022-09-07T14:38:08.038Z,24.27
2022-09-07T14:40:39.915Z,24.33
2022-09-07T14:43:30.940Z,24.31
2022-09-07T14:46:22.368Z,24.55
2022-09-07T14:48:55.583Z,24.68
2022-09-07T14:51:35.495Z,24.40
2022-09-07T14:54:10.599Z,24.51
2022-09-07T14:56:42.713Z,24.50
2022-09-07T14:59:37.312Z,24.44
2022-09-07T15:02:37.904Z,24.67
2022-09-07T15:05:29.900Z,24.66
2022-09-07T15:08:03.284Z,24.58
2022-09-07T15:11:32.960Z,24.60
2022-09-07T15:13:37.291Z,24.62
2022-09-07T15:16:23.328Z,24.71
2022-09-07T15:18:57.639Z,24.75
2022-09-07T15:21:32.189Z,24.60
2022-09-07T15:24:04.248Z,24.72
2022-09-07T15:29:33.150Z,24.77
2022-09-07T15:32:10.565Z,24.78
2022-09-07T15:34:43.344Z,24.71
2022-09-07T15:40:21.709Z,24.69
2022-09-07T15:43:00.660Z,24.74
2022-09-07T15:45:32.315Z,24.62
2022-09-07T15:48:04.466Z,24.83
2022-09-07T15:50:36.193Z,24.77
2022-09-07T15:54:06.642Z,24.74
2022-09-07T15:55:58.728Z,24.67
2022-09-07T15:58:31.933Z,24.68
2022-09-07T16:04:01.716Z,24.79
2022-09-07T16:06:36.403Z,24.96
2022-09-07T16:09:21.738Z,24.88
2022-09-07T16:14:56.394Z,25.01
2022-09-07T16:17:35.747Z,25.13
2022-09-07T16:20:12.856Z,25.03
2022-09-07T16:26:00.391Z,25.00
2022-09-07T16:28:35.413Z,25.04
2022-09-07T16:31:10.346Z,25.21
2022-09-07T16:33:48.212Z,25.30
2022-09-07T16:36:28.999Z,25.63
2022-09-07T16:39:01.753Z,25.48
2022-09-07T16:41:40.107Z,25.63
2022-09-07T16:44:11.553Z,25.77
2022-09-07T16:46:42.482Z,25.85
2022-09-07T16:49:15.449Z,25.78
2022-09-07T16:51:46.763Z,25.95
2022-09-07T16:54:18.268Z,25.96
2022-09-07T16:56:49.505Z,26.00
2022-09-07T16:59:26.812Z,26.00
2022-09-07T17:01:57.631Z,25.95
2022-09-07T17:04:29.150Z,26.04
2022-09-07T17:07:00.978Z,26.18
2022-09-07T17:09:32.007Z,26.19
2022-09-07T17:12:03.225Z,26.28
2022-09-07T17:14:35.388Z,26.38
2022-09-07T17:17:06.639Z,26.36
2022-09-07T17:19:37.909Z,26.43
2022-09-07T17:22:09.203Z,26.41
2022-09-07T17:24:42.424Z,26.48
2022-09-07T17:27:13.931Z,26.61
2022-09-07T17:29:45.337Z,26.63
2022-09-07T17:32:25.988Z,26.68
2022-09-07T17:34:58.155Z,26.81
2022-09-07T17:37:29.517Z,26.96
2022-09-07T17:40:05.418Z,27.15
2022-09-07T17:45:36.798Z,27.23
2022-09-07T17:48:09.289Z,27.27
2022-09-07T17:50:40.996Z,27.41
2022-09-07T17:53:12.086Z,27.47
2022-09-07T17:55:48.001Z,27.55
2022-09-07T17:58:19.935Z,27.62
2022-09-07T18:00:51.496Z,27.74
2022-09-07T18:03:23.046Z,27.88
2022-09-07T18:05:58.074Z,28.03
2022-09-07T18:08:28.191Z,28.08
2022-09-07T18:14:01.903Z,28.38
2022-09-07T18:16:35.912Z,28.52
2022-09-07T18:19:10.096Z,28.73
2022-09-07T18:21:43.239Z,28.87
2022-09-07T18:24:18.430Z,29.01
2022-09-07T18:26:53.655Z,29.18
2022-09-07T18:29:33.683Z,29.25
2022-09-07T18:32:09.863Z,29.53
2022-09-07T18:34:42.652Z,29.49
2022-09-07T18:37:16.459Z,29.59
2022-09-07T18:39:49.100Z,29.69
2022-09-07T18:42:29.246Z,29.84
2022-09-07T18:47:55.126Z,30.14
2022-09-07T18:50:31.826Z,30.23
2022-09-07T18:53:15.904Z,30.40
2022-09-07T18:55:50.895Z,30.45
2022-09-07T18:58:22.098Z,30.64
2022-09-07T19:00:58.050Z,30.77
2022-09-07T19:03:29.811Z,30.85
2022-09-07T19:06:03.952Z,30.90
2022-09-07T19:08:38.074Z,31.09
2022-09-07T19:11:11.145Z,31.22
2022-09-07T19:13:46.113Z,31.41
2022-09-07T19:16:19.492Z,31.44
2022-09-07T19:18:53.048Z,31.69
2022-09-07T19:21:27.328Z,31.73
2022-09-07T19:24:03.414Z,31.77
2022-09-07T19:26:40.440Z,31.96
2022-09-07T19:29:16.395Z,32.05
2022-09-07T19:32:04.437Z,32.19
2022-09-07T19:34:37.330Z,32.28
2022-09-07T19:37:10.438Z,32.31
2022-09-07T19:39:41.842Z,32.38
2022-09-07T19:42:15.684Z,32.56
2022-09-07T19:44:47.267Z,32.52
2022-09-07T19:47:18.643Z,32.42
2022-09-07T19:49:49.859Z,32.46
2022-09-07T19:52:20.864Z,32.52
2022-09-07T19:54:52.549Z,32.56
2022-09-07T19:57:24.061Z,32.57
2022-09-07T19:59:58.762Z,32.51
2022-09-07T20:02:32.643Z,32.42
2022-09-07T20:05:03.889Z,32.60
2022-09-07T20:07:35.447Z,32.55
2022-09-07T20:10:07.712Z,32.59
2022-09-07T20:12:42.887Z,32.53
2022-09-07T20:15:13.765Z,32.43
2022-09-07T20:17:47.439Z,32.59
2022-09-07T20:20:18.976Z,32.60
2022-09-07T20:22:51.457Z,32.54
2022-09-07T20:25:24.736Z,32.53
2022-09-07T20:27:56.002Z,32.60
2022-09-07T20:30:27.566Z,32.60
2022-09-07T20:32:58.577Z,32.53
2022-09-07T20:35:29.809Z,32.55
2022-09-07T20:38:03.469Z,32.61
2022-09-07T20:40:34.339Z,32.58
2022-09-07T20:43:05.690Z,32.66
2022-09-07T20:45:38.933Z,32.69
2022-09-07T20:48:09.851Z,32.72
2022-09-07T20:50:40.968Z,32.77
2022-09-07T20:53:11.827Z,32.73
2022-09-07T20:55:42.765Z,32.97
2022-09-07T20:58:13.628Z,32.93
2022-09-07T21:00:44.525Z,33.08
2022-09-07T21:03:15.349Z,33.14
2022-09-07T21:05:46.323Z,33.24
2022-09-07T21:08:17.577Z,33.33
2022-09-07T21:10:49.514Z,33.34
2022-09-07T21:13:20.386Z,33.31
2022-09-07T21:15:51.332Z,33.54
2022-09-07T21:18:22.232Z,33.54
2022-09-07T21:21:18.760Z,33.66
2022-09-07T21:23:50.341Z,33.68
2022-09-07T21:26:24.517Z,33.77
2022-09-07T21:29:00.204Z,33.92
2022-09-07T21:31:32.655Z,33.74
2022-09-07T21:34:04.327Z,33.87
2022-09-07T21:36:35.187Z,33.89
2022-09-07T21:39:08.155Z,33.94
2022-09-07T21:41:41.590Z,33.95
2022-09-07T21:44:14.930Z,34.00
2022-09-07T21:46:46.290Z,33.97
2022-09-07T21:49:17.170Z,34.05
2022-09-07T21:51:47.973Z,34.03
2022-09-07T21:54:18.797Z,33.97
2022-09-07T21:56:50.455Z,34.04
2022-09-07T21:59:21.425Z,33.96
2022-09-07T22:01:53.040Z,34.03
2022-09-07T22:04:23.886Z,34.12
2022-09-07T22:06:54.752Z,34.16
2022-09-07T22:09:25.625Z,34.22
2022-09-07T22:11:56.453Z,34.27
2022-09-07T22:14:27.370Z,34.32
2022-09-07T22:16:58.203Z,34.39
2022-09-07T22:19:29.019Z,34.31
2022-09-07T22:21:59.855Z,34.43
2022-09-07T22:24:31.030Z,34.49
2022-09-07T22:27:01.870Z,34.50
2022-09-07T22:29:32.784Z,34.69
2022-09-07T22:32:03.956Z,34.69
2022-09-07T22:34:34.822Z,34.82
2022-09-07T22:37:06.282Z,34.87
2022-09-07T22:39:37.161Z,34.97
2022-09-07T22:42:08.457Z,35.03
2022-09-07T22:44:39.679Z,35.08
2022-09-07T22:47:14.498Z,35.23
2022-09-07T22:49:45.382Z,35.28
2022-09-07T22:52:16.238Z,35.35
2022-09-07T22:54:47.087Z,35.38
2022-09-07T22:57:19.013Z,35.47
2022-09-07T22:59:49.908Z,35.48
2022-09-07T23:02:20.756Z,35.59
2022-09-07T23:04:51.765Z,35.61
2022-09-07T23:07:22.770Z,35.71
2022-09-07T23:09:53.569Z,35.91
2022-09-07T23:12:24.447Z,35.79
2022-09-07T23:14:55.237Z,36.05
2022-09-07T23:17:26.072Z,35.97
2022-09-07T23:19:56.954Z,36.07
2022-09-07T23:22:27.866Z,36.11
2022-09-07T23:24:58.662Z,36.20
2022-09-07T23:27:29.465Z,36.21
2022-09-07T23:30:00.387Z,36.29
2022-09-07T23:32:31.267Z,36.41
2022-09-07T23:35:02.794Z,36.44
2022-09-07T23:37:34.569Z,36.47
2022-09-07T23:40:06.671Z,36.47
2022-09-07T23:42:37.568Z,36.55
2022-09-07T23:45:09.939Z,36.59
2022-09-07T23:47:41.115Z,36.75
2022-09-07T23:50:12.984Z,36.86
2022-09-07T23:52:44.015Z,36.85
2022-09-07T23:55:15.187Z,36.94
2022-09-07T23:57:46.007Z,36.97
